createdAt,value
2023-05-10T00:00:03.864Z,12.70
2023-05-10T00:03:39.583Z,12.86
2023-05-10T00:07:22.685Z,12.75
2023-05-10T00:11:29.295Z,12.78
2023-05-10T00:15:00.263Z,12.50
2023-05-10T00:23:08.742Z,12.61
2023-05-10T00:31:31.507Z,12.45
2023-05-10T01:19:45.477Z,12.02
2023-05-10T01:24:09.343Z,12.01
2023-05-10T01:28:14.022Z,12.06
2023-05-10T01:31:58.670Z,12.03
2023-05-10T01:35:21.188Z,11.78
2023-05-10T01:39:22.288Z,11.80
2023-05-10T01:42:41.625Z,12.09
2023-05-10T01:46:48.459Z,12.13
2023-05-10T01:50:13.613Z,12.15
2023-05-10T01:53:42.988Z,12.25
2023-05-10T01:57:27.476Z,12.13
2023-05-10T02:01:14.602Z,12.32
2023-05-10T02:04:46.965Z,12.10
2023-05-10T02:08:12.431Z,12.31
2023-05-10T02:11:38.327Z,12.29
2023-05-10T02:14:59.841Z,12.30
2023-05-10T02:22:22.953Z,12.15
2023-05-10T02:26:52.496Z,12.19
2023-05-10T02:39:33.466Z,12.55
2023-05-10T02:51:56.914Z,12.31
2023-05-10T02:55:22.594Z,12.29
2023-05-10T02:58:41.127Z,12.26
2023-05-10T03:02:01.648Z,12.20
2023-05-10T03:05:14.871Z,12.08
2023-05-10T03:08:23.982Z,12.10
2023-05-10T03:12:07.396Z,12.12
2023-05-10T03:15:45.124Z,12.02
2023-05-10T03:19:30.866Z,12.09
2023-05-10T03:22:47.808Z,12.01
2023-05-10T03:26:01.453Z,11.95
2023-05-10T03:29:22.071Z,11.84
2023-05-10T03:32:30.217Z,11.71
2023-05-10T03:35:39.255Z,11.92
2023-05-10T03:38:55.148Z,11.97
2023-05-10T03:42:05.969Z,12.06
2023-05-10T03:45:28.342Z,11.76
2023-05-10T03:48:54.351Z,11.96
2023-05-10T03:52:17.976Z,11.99
2023-05-10T03:55:54.820Z,11.96
2023-05-10T03:59:23.893Z,12.02
2023-05-10T04:02:47.962Z,12.07
2023-05-10T04:06:21.136Z,11.89
2023-05-10T04:09:54.567Z,12.12
2023-05-10T04:13:14.995Z,12.10
2023-05-10T04:16:28.630Z,11.81
2023-05-10T04:19:47.872Z,12.05
2023-05-10T04:23:01.942Z,11.95
2023-05-10T04:26:09.963Z,11.65
2023-05-10T04:29:27.069Z,11.75
2023-05-10T04:32:37.281Z,11.75
2023-05-10T04:35:56.745Z,11.78
2023-05-10T04:39:10.492Z,11.80
2023-05-10T04:42:40.689Z,11.71
2023-05-10T04:46:03.783Z,11.88
2023-05-10T04:49:20.118Z,11.93
2023-05-10T04:52:37.122Z,11.77
2023-05-10T04:55:45.486Z,11.99
2023-05-10T04:59:07.675Z,12.12
2023-05-10T05:02:20.965Z,11.96
2023-05-10T05:05:25.719Z,12.12
2023-05-10T05:08:32.185Z,12.15
2023-05-10T05:11:45.256Z,12.19
2023-05-10T05:15:03.573Z,11.99
2023-05-10T05:18:19.221Z,12.06
2023-05-10T05:21:30.897Z,12.04
2023-05-10T05:24:47.483Z,12.07
2023-05-10T05:27:56.860Z,12.46
2023-05-10T05:31:06.921Z,12.58
2023-05-10T05:34:10.994Z,12.47
2023-05-10T05:37:31.005Z,12.15
2023-05-10T05:40:40.937Z,12.26
2023-05-10T05:43:44.352Z,12.64
2023-05-10T05:46:56.648Z,12.76
2023-05-10T05:50:07.708Z,12.65
2023-05-10T05:53:22.446Z,12.67
2023-05-10T05:57:55.877Z,12.68
2023-05-10T06:01:15.535Z,12.78
2023-05-10T06:28:25.759Z,17.10
2023-05-10T06:57:47.293Z,14.19
2023-05-10T07:38:31.615Z,17.92
2023-05-10T07:41:35.906Z,18.99
2023-05-10T07:44:38.812Z,16.95
2023-05-10T07:47:44.234Z,15.90
2023-05-10T07:50:46.747Z,17.55
2023-05-10T07:53:50.186Z,16.02
2023-05-10T07:56:59.225Z,15.88
2023-05-10T08:00:04.733Z,15.57
2023-05-10T08:03:14.439Z,15.62
2023-05-10T08:06:17.150Z,16.17
2023-05-10T08:09:25.025Z,16.30
2023-05-10T08:12:40.386Z,16.01
2023-05-10T08:15:42.802Z,15.89
2023-05-10T08:18:46.695Z,16.01
2023-05-10T08:21:49.518Z,15.94
2023-05-10T08:25:00.387Z,15.82
2023-05-10T08:28:09.913Z,15.93
2023-05-10T08:31:19.187Z,15.85
2023-05-10T08:34:23.041Z,15.91
2023-05-10T08:37:26.379Z,15.78
2023-05-10T08:40:29.451Z,15.82
2023-05-10T08:43:39.642Z,15.71
2023-05-10T08:46:52.035Z,15.70
2023-05-10T08:49:58.520Z,15.81
2023-05-10T08:53:05.226Z,16.25
2023-05-10T08:56:08.481Z,16.22
2023-05-10T08:59:14.428Z,15.86
2023-05-10T09:02:28.680Z,15.74
2023-05-10T09:05:34.843Z,15.99
2023-05-10T09:08:41.657Z,16.23
2023-05-10T09:11:50.051Z,16.07
2023-05-10T09:14:53.784Z,16.24
2023-05-10T09:17:56.603Z,16.02
2023-05-10T09:20:58.643Z,16.16
2023-05-10T09:24:07.995Z,16.24
2023-05-10T09:27:10.938Z,16.53
2023-05-10T09:30:34.467Z,16.82
2023-05-10T09:33:52.161Z,16.97
2023-05-10T09:37:02.090Z,17.02
2023-05-10T09:40:08.688Z,16.73
2023-05-10T09:43:47.348Z,17.04
2023-05-10T09:47:13.149Z,17.27
2023-05-10T09:50:15.831Z,17.11
2023-05-10T09:53:34.809Z,17.29
2023-05-10T10:34:39.855Z,17.08
2023-05-10T10:50:20.475Z,17.22
2023-05-10T10:52:12.481Z,17.62
2023-05-10T10:55:52.504Z,18.10
2023-05-10T10:59:10.270Z,18.75
2023-05-10T11:02:46.942Z,18.07
2023-05-10T11:05:51.000Z,18.00
2023-05-10T11:09:13.532Z,17.91
2023-05-10T11:12:27.408Z,18.26
2023-05-10T11:15:51.322Z,17.96
2023-05-10T11:19:05.129Z,17.68
2023-05-10T11:22:25.128Z,17.76
2023-05-10T11:25:31.211Z,17.88
2023-05-10T11:28:49.767Z,17.64
2023-05-10T11:32:15.561Z,17.44
2023-05-10T11:35:28.396Z,17.66
2023-05-10T11:38:59.766Z,18.28
2023-05-10T11:42:14.417Z,18.47
2023-05-10T11:45:17.888Z,18.92
2023-05-10T11:48:25.131Z,18.64
2023-05-10T11:51:29.212Z,18.54
2023-05-10T11:54:36.142Z,18.32
2023-05-10T11:57:39.796Z,18.13
2023-05-10T12:00:48.202Z,18.40
2023-05-10T12:03:54.189Z,18.47
2023-05-10T12:06:57.343Z,18.40
2023-05-10T12:10:11.776Z,18.31
2023-05-10T12:13:27.430Z,18.23
2023-05-10T12:21:13.223Z,18.02
2023-05-10T12:24:19.224Z,18.38
2023-05-10T12:27:22.893Z,18.29
2023-05-10T12:30:30.459Z,18.27
2023-05-10T12:33:44.677Z,18.65
2023-05-10T12:36:46.801Z,18.45
2023-05-10T12:39:52.660Z,18.42
2023-05-10T12:42:56.120Z,18.35
2023-05-10T12:45:58.323Z,18.33
2023-05-10T12:49:08.507Z,18.28
2023-05-10T12:52:11.487Z,18.37
2023-05-10T12:55:17.025Z,18.43
2023-05-10T12:58:34.306Z,18.34
2023-05-10T13:01:38.109Z,18.62
2023-05-10T13:04:56.851Z,18.72
2023-05-10T13:07:59.420Z,18.84
2023-05-10T13:11:05.384Z,18.91
2023-05-10T13:14:08.190Z,19.17
2023-05-10T13:17:13.551Z,18.85
2023-05-10T13:20:21.409Z,19.20
2023-05-10T13:23:24.391Z,19.21
2023-05-10T13:26:33.724Z,19.30
2023-05-10T13:29:35.896Z,19.26
2023-05-10T13:32:38.230Z,19.06
2023-05-10T13:35:40.332Z,19.23
2023-05-10T13:38:42.424Z,19.25
2023-05-10T13:41:50.516Z,19.25
2023-05-10T13:44:52.901Z,19.29
2023-05-10T13:47:54.910Z,19.45
2023-05-10T13:50:57.137Z,19.53
2023-05-10T13:53:59.512Z,19.26
2023-05-10T13:57:01.797Z,19.17
2023-05-10T14:00:04.396Z,19.24
2023-05-10T14:03:08.819Z,18.94
2023-05-10T14:06:10.970Z,18.96
2023-05-10T14:09:13.019Z,18.63
2023-05-10T14:12:15.727Z,18.70
2023-05-10T14:15:17.908Z,18.73
2023-05-10T14:18:20.189Z,18.84
2023-05-10T14:21:22.221Z,18.87
2023-05-10T14:24:25.638Z,18.65
2023-05-10T14:27:28.032Z,18.61
2023-05-10T14:30:31.944Z,18.55
2023-05-10T14:33:38.214Z,18.67
2023-05-10T14:40:25.833Z,18.69
2023-05-10T14:44:51.914Z,18.43
2023-05-10T14:48:30.790Z,18.66
2023-05-10T14:55:45.303Z,18.88
2023-05-10T15:07:40.002Z,18.28
2023-05-10T15:10:54.331Z,18.40
2023-05-10T15:14:02.633Z,18.34
2023-05-10T15:20:53.417Z,18.09
2023-05-10T15:27:26.932Z,18.32
2023-05-10T15:34:28.660Z,18.36
2023-05-10T15:37:50.600Z,18.39
2023-05-10T15:41:12.601Z,18.53
2023-05-10T15:44:35.736Z,18.56
2023-05-10T15:47:46.077Z,18.50
2023-05-10T15:51:01.077Z,18.17
2023-05-10T15:54:28.965Z,18.41
2023-05-10T15:57:36.792Z,18.43
2023-05-10T16:00:51.282Z,18.20
2023-05-10T16:03:58.931Z,18.39
2023-05-10T16:07:27.311Z,18.41
2023-05-10T16:10:42.556Z,18.38
2023-05-10T16:14:10.168Z,18.25
2023-05-10T16:17:28.908Z,18.43
2023-05-10T16:21:05.415Z,18.30
2023-05-10T16:24:37.768Z,18.64
2023-05-10T16:31:38.309Z,18.54
2023-05-10T16:35:37.014Z,18.33
2023-05-10T16:39:27.452Z,18.14
2023-05-10T16:43:02.366Z,18.07
2023-05-10T16:55:10.363Z,17.83
2023-05-10T17:02:11.549Z,17.63
2023-05-10T17:05:50.701Z,17.41
2023-05-10T17:09:07.862Z,17.57
2023-05-10T17:12:25.969Z,17.66
2023-05-10T17:16:08.595Z,17.56
2023-05-10T17:19:37.516Z,17.38
2023-05-10T17:23:08.947Z,17.47
2023-05-10T17:26:38.722Z,17.44
2023-05-10T17:30:38.281Z,17.21
2023-05-10T17:46:20.340Z,17.17
2023-05-10T17:49:47.885Z,17.09
2023-05-10T17:53:28.926Z,17.05
2023-05-10T17:56:49.295Z,16.82
2023-05-10T18:00:07.416Z,16.94
2023-05-10T18:03:56.952Z,16.76
2023-05-10T18:07:04.433Z,16.78
2023-05-10T18:10:13.076Z,16.80
2023-05-10T18:13:18.044Z,16.78
2023-05-10T18:16:24.404Z,16.73
2023-05-10T18:19:46.183Z,16.64
2023-05-10T18:22:58.367Z,16.56
2023-05-10T18:26:03.187Z,16.55
2023-05-10T18:29:13.836Z,16.50
2023-05-10T18:32:27.749Z,16.47
2023-05-10T18:35:45.569Z,16.42
2023-05-10T18:38:52.433Z,16.26
2023-05-10T18:42:02.452Z,16.30
2023-05-10T18:45:15.530Z,16.33
2023-05-10T18:48:22.331Z,16.30
2023-05-10T18:51:33.899Z,16.29
2023-05-10T18:54:46.700Z,16.28
2023-05-10T18:57:58.670Z,16.32
2023-05-10T19:01:10.311Z,16.25
2023-05-10T19:04:22.472Z,16.05
2023-05-10T19:07:40.668Z,16.13
2023-05-10T19:10:51.561Z,16.16
2023-05-10T19:14:00.478Z,16.14
2023-05-10T19:17:41.112Z,15.75
2023-05-10T19:20:56.206Z,16.06
2023-05-10T19:24:06.916Z,16.04
2023-05-10T19:27:20.034Z,16.04
2023-05-10T19:30:36.107Z,16.08
2023-05-10T19:33:47.162Z,16.01
2023-05-10T19:37:03.036Z,15.70
2023-05-10T19:40:13.688Z,15.81
2023-05-10T19:43:22.106Z,15.73
2023-05-10T19:46:35.082Z,15.98
2023-05-10T19:49:39.906Z,15.95
2023-05-10T19:53:03.053Z,15.74
2023-05-10T19:56:21.449Z,15.90
2023-05-10T19:59:55.914Z,15.56
2023-05-10T20:03:20.008Z,15.82
2023-05-10T20:07:00.216Z,15.57
2023-05-10T20:10:21.915Z,15.80
2023-05-10T20:13:51.165Z,15.76
2023-05-10T20:17:16.575Z,15.54
2023-05-10T20:21:02.238Z,15.71
2023-05-10T20:24:34.921Z,15.67
2023-05-10T20:27:53.698Z,15.36
2023-05-10T20:31:07.720Z,15.56
2023-05-10T20:34:23.407Z,15.56
2023-05-10T20:37:38.390Z,15.67
2023-05-10T20:41:01.626Z,15.68
2023-05-10T20:44:54.117Z,15.64
2023-05-10T20:51:47.369Z,15.62
2023-05-10T20:58:27.697Z,15.43
2023-05-10T21:02:06.309Z,15.64
2023-05-10T21:05:27.002Z,15.44
2023-05-10T21:08:46.306Z,15.54
2023-05-10T21:12:50.845Z,15.49
2023-05-10T21:16:19.759Z,15.53
2023-05-10T21:20:15.422Z,15.15
2023-05-10T21:23:38.565Z,15.44
2023-05-10T21:27:15.295Z,15.28
2023-05-10T21:40:10.189Z,15.45
2023-05-10T22:11:06.895Z,15.20
2023-05-10T22:14:59.508Z,15.14
2023-05-10T22:18:16.296Z,15.10
2023-05-10T22:21:34.775Z,15.14
2023-05-10T22:24:47.089Z,15.13
2023-05-10T22:31:17.330Z,15.08
2023-05-10T22:34:24.034Z,15.08
2023-05-10T22:37:30.673Z,14.99
2023-05-10T22:40:43.079Z,14.77
2023-05-10T22:43:54.860Z,14.84
2023-05-10T22:47:14.603Z,14.84
2023-05-10T22:50:40.071Z,14.72
2023-05-10T22:54:19.698Z,14.82
2023-05-10T22:57:29.938Z,14.76
2023-05-10T23:01:04.881Z,14.42
2023-05-10T23:04:25.055Z,14.30
2023-05-10T23:07:59.202Z,14.22
2023-05-10T23:11:26.760Z,14.36
2023-05-10T23:14:59.478Z,14.17
2023-05-10T23:18:44.011Z,14.25
2023-05-10T23:22:19.716Z,14.12
2023-05-10T23:25:50.651Z,14.24
2023-05-10T23:29:17.238Z,14.08
2023-05-10T23:32:42.444Z,13.95
2023-05-10T23:36:28.805Z,14.28
2023-05-10T23:39:46.712Z,14.33
2023-05-10T23:43:05.526Z,14.15
2023-05-10T23:46:25.635Z,14.30
2023-05-10T23:49:51.976Z,14.28
2023-05-10T23:53:02.040Z,14.30
2023-05-10T23:56:11.536Z,14.40
2023-05-10T23:59:15.116Z,14.30
